Time;durP1;ratioP1;P1;durP2;ratioP2;P2;SDS_P1;SDS_P2;PMS_P1;PMS_P2;Temp;Humidity;BMP_temperature;BMP_pressure;BME280_temperature;BME280_humidity;BME280_pressure;Samples;Min_cycle;Max_cycle;Signal;HPM_P1;HPM_P2
2024/01/30 00:02:11;;;;;;;25.52;20.27;;;7.00;89.80;;;;;;5055747;28;20040;-50
2024/01/30 00:04:37;;;;;;;26.42;21.58;;;7.00;89.80;;;;;;5055822;28;20092;-48
2024/01/30 00:07:05;;;;;;;22.27;19.10;;;7.00;89.80;;;;;;5055880;28;20036;-49
2024/01/30 00:09:31;;;;;;;21.77;18.58;;;7.00;89.80;;;;;;5034941;28;20450;-49
2024/01/30 00:11:57;;;;;;;20.50;18.20;;;7.00;89.80;;;;;;5054094;28;20352;-48
2024/01/30 00:14:25;;;;;;;23.45;17.60;;;6.90;89.70;;;;;;5055726;28;20021;-49
2024/01/30 00:16:51;;;;;;;21.75;19.38;;;6.90;89.80;;;;;;5038200;28;20028;-50
2024/01/30 00:19:17;;;;;;;23.63;19.38;;;6.80;89.90;;;;;;5054714;28;20043;-48
2024/01/30 00:21:43;;;;;;;21.38;18.10;;;6.80;90.00;;;;;;5051511;28;20049;-48
2024/01/30 00:24:08;;;;;;;25.27;18.77;;;6.80;90.20;;;;;;5046311;28;20056;-48
2024/01/30 00:26:34;;;;;;;25.90;18.75;;;6.80;90.20;;;;;;5045318;28;20037;-48
2024/01/30 00:29:00;;;;;;;25.08;19.70;;;6.80;90.10;;;;;;5048116;28;20029;-48
2024/01/30 00:31:29;;;;;;;23.58;19.05;;;6.80;90.20;;;;;;5051194;28;20060;-49
2024/01/30 00:33:54;;;;;;;24.50;18.53;;;6.80;90.30;;;;;;5052092;28;20029;-49
2024/01/30 00:36:20;;;;;;;25.00;19.00;;;6.80;90.30;;;;;;5024471;28;20271;-50
2024/01/30 00:38:46;;;;;;;24.08;20.63;;;6.70;90.40;;;;;;5054269;28;20600;-49
2024/01/30 00:41:11;;;;;;;23.98;18.83;;;6.80;90.40;;;;;;5052461;28;20027;-48
2024/01/30 00:43:37;;;;;;;22.05;19.33;;;6.80;90.40;;;;;;5055027;28;20323;-47
2024/01/30 00:46:05;;;;;;;24.15;20.00;;;6.80;90.40;;;;;;5054488;28;20682;-48
2024/01/30 00:48:31;;;;;;;26.00;20.13;;;6.80;90.30;;;;;;5054474;28;20426;-51
2024/01/30 00:50:59;;;;;;;24.77;21.17;;;6.90;90.30;;;;;;5053993;28;20037;-50
2024/01/30 00:53:25;;;;;;;21.90;18.45;;;6.90;90.20;;;;;;5054605;28;20044;-48
2024/01/30 00:55:52;;;;;;;27.15;20.75;;;6.90;90.20;;;;;;5050928;28;20029;-49
2024/01/30 00:58:19;;;;;;;23.67;18.95;;;6.90;90.00;;;;;;5052566;28;20036;-48
2024/01/30 01:00:45;;;;;;;24.08;19.85;;;6.90;90.00;;;;;;5050702;28;20031;-48
2024/01/30 01:03:13;;;;;;;26.05;20.33;;;6.90;89.90;;;;;;5033417;28;20025;-48
2024/01/30 01:05:41;;;;;;;25.77;19.73;;;7.00;89.90;;;;;;5049941;28;20420;-49
2024/01/30 01:08:07;;;;;;;22.58;18.98;;;7.00;89.70;;;;;;5033911;28;20617;-50
2024/01/30 01:10:33;;;;;;;23.35;18.63;;;7.00;89.60;;;;;;5049665;28;20021;-48
2024/01/30 01:12:58;;;;;;;21.95;18.08;;;6.90;89.60;;;;;;5054255;28;20367;-48
2024/01/30 01:15:24;;;;;;;26.50;20.02;;;6.90;89.60;;;;;;5054368;28;20029;-49
2024/01/30 01:17:50;;;;;;;25.15;20.45;;;6.90;89.60;;;;;;5054694;28;20021;-48
2024/01/30 01:20:15;;;;;;;24.95;20.02;;;6.80;89.70;;;;;;5053028;28;20063;-49
2024/01/30 01:22:43;;;;;;;23.05;19.00;;;6.80;89.70;;;;;;5054471;28;20053;-51
2024/01/30 01:25:11;;;;;;;28.58;19.23;;;6.80;89.70;;;;;;5054113;28;20035;-50
2024/01/30 01:27:41;;;;;;;27.60;18.60;;;6.70;89.80;;;;;;5053986;28;20017;-48
2024/01/30 01:30:11;;;;;;;23.83;18.75;;;6.70;89.90;;;;;;5036193;28;20021;-50
2024/01/30 01:32:38;;;;;;;23.35;19.10;;;6.60;90.10;;;;;;5054000;28;20445;-49
2024/01/30 01:35:06;;;;;;;25.02;20.30;;;6.60;90.20;;;;;;5054638;28;20029;-48
2024/01/30 01:37:34;;;;;;;22.05;19.15;;;6.60;90.20;;;;;;5036428;28;20061;-48
2024/01/30 01:40:00;;;;;;;23.30;18.48;;;6.60;90.20;;;;;;5045200;28;20029;-49
2024/01/30 01:42:25;;;;;;;24.60;19.33;;;6.60;90.20;;;;;;5037418;28;20405;-48
2024/01/30 01:44:51;;;;;;;23.08;19.50;;;6.60;90.20;;;;;;5054105;28;20337;-51
2024/01/30 01:47:17;;;;;;;21.90;18.85;;;6.50;90.20;;;;;;5053428;28;20040;-48
2024/01/30 01:49:42;;;;;;;26.38;19.85;;;6.50;90.10;;;;;;5053496;28;20071;-48
2024/01/30 01:52:08;;;;;;;25.90;20.63;;;6.50;90.10;;;;;;5053337;28;20028;-50
2024/01/30 01:54:34;;;;;;;24.55;19.63;;;6.40;90.10;;;;;;5053535;28;20017;-52
2024/01/30 01:57:00;;;;;;;23.90;20.58;;;6.40;90.10;;;;;;5052626;28;20445;-48
2024/01/30 01:59:27;;;;;;;24.50;18.83;;;6.40;90.10;;;;;;5053628;28;20425;-49
2024/01/30 02:01:58;;;;;;;25.80;19.23;;;6.40;90.20;;;;;;5053080;28;20040;-49
2024/01/30 02:04:24;;;;;;;24.40;20.00;;;6.30;90.20;;;;;;5049404;28;20198;-49
2024/01/30 02:06:50;;;;;;;22.80;19.05;;;6.30;90.30;;;;;;5053621;28;20021;-49
2024/01/30 02:09:15;;;;;;;26.23;18.90;;;6.20;90.40;;;;;;5053094;28;20048;-48
2024/01/30 02:11:41;;;;;;;27.92;19.35;;;6.20;90.50;;;;;;5052501;28;20025;-48
2024/01/30 02:14:07;;;;;;;22.40;19.25;;;6.20;90.60;;;;;;5052367;28;20110;-48
2024/01/30 02:16:33;;;;;;;24.95;20.02;;;6.20;90.70;;;;;;5055500;28;20075;-49
2024/01/30 02:18:58;;;;;;;27.50;21.15;;;6.20;90.60;;;;;;5052758;28;20398;-52
2024/01/30 02:21:26;;;;;;;21.92;18.92;;;6.20;90.60;;;;;;5053283;28;20049;-48
2024/01/30 02:23:54;;;;;;;24.25;18.92;;;6.20;90.60;;;;;;5053487;28;20044;-48
2024/01/30 02:26:20;;;;;;;27.20;19.27;;;6.30;90.60;;;;;;5051299;28;20028;-50
2024/01/30 02:28:45;;;;;;;22.30;18.25;;;6.30;90.60;;;;;;5052970;28;20040;-49
2024/01/30 02:31:13;;;;;;;23.42;18.73;;;6.30;90.60;;;;;;5053227;28;20032;-48
2024/01/30 02:33:39;;;;;;;25.05;19.98;;;6.30;90.60;;;;;;5052864;28;20025;-48
2024/01/30 02:36:07;;;;;;;23.48;19.33;;;6.30;90.70;;;;;;5052581;28;20040;-48
2024/01/30 02:38:32;;;;;;;23.02;19.15;;;6.30;90.80;;;;;;5035338;28;20649;-50
2024/01/30 02:41:00;;;;;;;20.90;18.63;;;6.20;90.60;;;;;;5052222;28;20025;-50
2024/01/30 02:43:28;;;;;;;23.38;18.65;;;6.20;90.60;;;;;;5043569;28;20437;-50
2024/01/30 02:45:54;;;;;;;22.67;18.17;;;6.20;90.60;;;;;;5052777;28;20082;-48
2024/01/30 02:48:19;;;;;;;26.65;19.52;;;6.20;90.50;;;;;;5036390;28;20029;-48
2024/01/30 02:50:45;;;;;;;24.65;19.02;;;6.10;90.60;;;;;;5035469;28;20071;-49
2024/01/30 02:53:11;;;;;;;21.33;19.02;;;6.00;90.60;;;;;;5052894;28;20021;-48
2024/01/30 02:55:42;;;;;;;27.70;20.33;;;6.00;90.70;;;;;;5052612;28;20033;-48
2024/01/30 02:58:08;;;;;;;22.45;18.98;;;6.00;90.70;;;;;;5050949;28;20033;-48
2024/01/30 03:00:34;;;;;;;25.48;18.77;;;5.90;90.90;;;;;;5052550;28;20025;-49
2024/01/30 03:03:00;;;;;;;21.15;18.65;;;5.90;91.00;;;;;;5052587;28;20047;-48
2024/01/30 03:05:25;;;;;;;22.83;19.95;;;5.90;91.10;;;;;;5052361;28;20413;-50
2024/01/30 03:07:51;;;;;;;26.48;19.60;;;5.90;91.10;;;;;;5051482;28;20431;-48
2024/01/30 03:10:16;;;;;;;27.63;20.13;;;5.90;91.40;;;;;;5052448;28;20029;-48
2024/01/30 03:12:47;;;;;;;23.85;19.35;;;5.90;91.40;;;;;;5041375;28;20057;-49
2024/01/30 03:15:15;;;;;;;22.80;19.05;;;5.90;91.40;;;;;;5052463;28;20343;-50
2024/01/30 03:17:41;;;;;;;24.65;18.88;;;5.90;91.50;;;;;;5042637;28;20030;-50
2024/01/30 03:20:11;;;;;;;22.13;19.05;;;5.90;91.50;;;;;;5024378;28;20493;-48
2024/01/30 03:22:36;;;;;;;;;;;5.90;91.60;;;;;;5032560;28;20120;-49
2024/01/30 03:25:02;;;;;;;24.38;18.80;;;5.90;91.50;;;;;;5031940;28;20004;-48
2024/01/30 03:27:28;;;;;;;27.70;20.95;;;5.80;91.50;;;;;;5031731;28;20493;-48
2024/01/30 03:29:54;;;;;;;25.60;19.55;;;5.80;91.70;;;;;;5032500;28;20025;-47
2024/01/30 03:32:20;;;;;;;26.13;19.58;;;5.80;91.70;;;;;;5032413;28;20535;-48
2024/01/30 03:34:48;;;;;;;24.27;19.65;;;5.80;91.70;;;;;;5032458;28;20417;-50
2024/01/30 03:37:13;;;;;;;23.70;18.48;;;5.80;91.70;;;;;;5030747;28;20037;-49
2024/01/30 03:39:41;;;;;;;26.42;20.38;;;5.80;91.70;;;;;;5032177;28;20025;-51
2024/01/30 03:42:07;;;;;;;21.65;18.98;;;5.80;91.80;;;;;;5031310;28;20037;-48
2024/01/30 03:44:35;;;;;;;23.95;19.95;;;5.80;91.70;;;;;;5032053;28;20136;-53
2024/01/30 03:47:00;;;;;;;22.40;18.65;;;5.80;91.90;;;;;;5014097;28;20026;-48
2024/01/30 03:49:26;;;;;;;25.55;20.20;;;5.80;91.90;;;;;;5031782;28;20075;-48
2024/01/30 03:51:54;;;;;;;21.63;19.38;;;5.70;92.00;;;;;;5014853;28;20025;-48
2024/01/30 03:54:19;;;;;;;21.67;17.73;;;5.70;92.00;;;;;;5031729;28;20025;-47
2024/01/30 03:56:47;;;;;;;22.10;18.35;;;5.70;92.00;;;;;;5032047;28;20029;-48
2024/01/30 03:59:13;;;;;;;21.65;19.02;;;5.80;92.00;;;;;;5031381;28;20112;-48
2024/01/30 04:01:38;;;;;;;21.80;18.40;;;5.70;92.00;;;;;;5032091;28;20742;-47
2024/01/30 04:04:04;;;;;;;23.63;19.65;;;5.70;92.10;;;;;;5031708;28;20051;-49
2024/01/30 04:06:30;;;;;;;30.38;21.33;;;5.80;92.10;;;;;;5031978;28;20022;-47
2024/01/30 04:08:58;;;;;;;23.65;19.25;;;5.80;92.10;;;;;;5031503;28;20331;-47
2024/01/30 04:11:23;;;;;;;23.98;18.60;;;5.80;92.00;;;;;;5014396;28;20323;-47
2024/01/30 04:13:54;;;;;;;23.67;19.58;;;5.70;92.00;;;;;;5030627;28;20084;-48
2024/01/30 04:16:25;;;;;;;23.70;19.77;;;5.70;92.10;;;;;;5031662;28;20021;-48
2024/01/30 04:18:51;;;;;;;23.90;18.80;;;5.70;92.20;;;;;;5014067;28;20032;-47
2024/01/30 04:21:17;;;;;;;22.25;18.75;;;5.70;92.40;;;;;;5045974;28;20068;-51
2024/01/30 04:23:43;;;;;;;26.25;20.55;;;5.80;92.40;;;;;;5051724;28;20483;-47
2024/01/30 04:26:08;;;;;;;24.00;20.13;;;5.80;92.20;;;;;;5051457;28;20131;-47
2024/01/30 04:28:34;;;;;;;24.52;20.27;;;5.70;92.20;;;;;;5050911;28;20469;-47
2024/01/30 04:30:59;;;;;;;25.58;20.95;;;5.70;92.30;;;;;;5051512;28;20032;-48
2024/01/30 04:33:25;;;;;;;22.45;18.90;;;5.70;92.40;;;;;;5051790;28;20107;-47
2024/01/30 04:35:51;;;;;;;22.98;20.42;;;5.70;92.40;;;;;;5052446;28;20021;-48
2024/01/30 04:38:17;;;;;;;24.70;19.83;;;5.70;92.30;;;;;;5054456;28;20051;-50
2024/01/30 04:40:43;;;;;;;25.83;20.48;;;5.70;92.30;;;;;;5054963;28;20445;-47
2024/01/30 04:43:09;;;;;;;26.85;20.67;;;5.70;92.30;;;;;;5051890;28;20021;-47
2024/01/30 04:45:34;;;;;;;24.38;20.90;;;5.70;92.40;;;;;;5055009;28;20103;-47
2024/01/30 04:48:03;;;;;;;24.85;19.33;;;5.70;92.30;;;;;;5054803;28;20033;-48
2024/01/30 04:50:28;;;;;;;21.80;18.83;;;5.70;92.50;;;;;;5054844;28;20021;-51
2024/01/30 04:52:54;;;;;;;23.77;21.27;;;5.70;92.30;;;;;;5054081;28;20110;-47
2024/01/30 04:55:19;;;;;;;24.08;19.67;;;5.70;92.50;;;;;;5054977;28;20361;-47
2024/01/30 04:57:45;;;;;;;24.05;20.10;;;5.70;92.40;;;;;;5054786;28;20029;-53
2024/01/30 05:00:11;;;;;;;24.30;19.70;;;5.70;92.40;;;;;;5052080;28;20029;-50
2024/01/30 05:02:39;;;;;;;24.92;20.10;;;5.70;92.50;;;;;;5054383;28;20035;-47
2024/01/30 05:05:05;;;;;;;27.13;20.02;;;5.70;92.50;;;;;;5054534;28;20041;-47
2024/01/30 05:07:31;;;;;;;25.05;19.83;;;5.70;92.60;;;;;;5052943;28;20552;-47
2024/01/30 05:09:59;;;;;;;27.70;20.67;;;5.70;92.60;;;;;;5054428;28;20330;-47
2024/01/30 05:12:24;;;;;;;23.05;19.88;;;5.70;92.60;;;;;;5036359;28;20559;-47
2024/01/30 05:14:50;;;;;;;21.90;19.15;;;5.70;92.40;;;;;;5052682;28;20048;-50
2024/01/30 05:17:18;;;;;;;21.77;19.42;;;5.70;92.60;;;;;;5036440;28;20029;-47
2024/01/30 05:19:44;;;;;;;23.15;19.55;;;5.70;92.50;;;;;;5053764;28;20020;-48
2024/01/30 05:22:10;;;;;;;25.15;19.38;;;5.70;92.50;;;;;;5053975;28;20086;-49
2024/01/30 05:24:36;;;;;;;23.90;19.08;;;5.60;92.50;;;;;;5053446;28;20028;-49
2024/01/30 05:27:04;;;;;;;28.02;21.52;;;5.70;92.50;;;;;;5054198;28;20060;-48
2024/01/30 05:29:30;;;;;;;25.90;20.77;;;5.60;92.50;;;;;;5052482;28;20127;-47
2024/01/30 05:31:58;;;;;;;24.65;21.33;;;5.70;92.50;;;;;;5041103;28;20029;-48
2024/01/30 05:34:26;;;;;;;29.42;21.70;;;5.70;92.60;;;;;;5051825;28;20112;-47
2024/01/30 05:36:51;;;;;;;26.00;20.73;;;5.70;92.70;;;;;;5054136;28;20033;-52
2024/01/30 05:39:17;;;;;;;30.65;20.60;;;5.70;92.70;;;;;;5054075;28;20036;-47
2024/01/30 05:41:47;;;;;;;24.25;20.73;;;5.80;92.80;;;;;;5036098;28;20064;-50
2024/01/30 05:44:13;;;;;;;24.50;19.90;;;5.80;92.80;;;;;;5051355;28;20044;-51
2024/01/30 05:46:38;;;;;;;23.83;20.85;;;5.90;92.90;;;;;;5036136;28;20025;-48
2024/01/30 05:49:04;;;;;;;28.15;20.83;;;5.90;92.80;;;;;;5053992;28;20032;-50
2024/01/30 05:51:30;;;;;;;24.38;19.95;;;5.90;92.70;;;;;;5036297;28;20036;-47
2024/01/30 05:53:55;;;;;;;23.98;19.83;;;6.00;92.70;;;;;;5035908;28;20029;-49
2024/01/30 05:56:25;;;;;;;23.33;19.63;;;6.00;92.50;;;;;;5034266;28;20029;-48
2024/01/30 05:58:51;;;;;;;24.85;19.45;;;5.90;92.40;;;;;;5053134;28;20421;-51
2024/01/30 06:01:17;;;;;;;23.35;19.63;;;5.90;92.30;;;;;;5044840;28;20064;-46
2024/01/30 06:03:43;;;;;;;23.85;20.17;;;5.90;92.30;;;;;;5046847;28;20382;-49
2024/01/30 06:06:11;;;;;;;23.55;20.67;;;6.00;92.50;;;;;;5051133;28;20032;-48
2024/01/30 06:08:36;;;;;;;22.35;20.02;;;6.00;92.60;;;;;;5050892;28;20029;-49
2024/01/30 06:11:02;;;;;;;26.95;22.80;;;6.10;92.60;;;;;;5048297;28;20099;-47
2024/01/30 06:13:28;;;;;;;23.77;21.27;;;6.20;92.80;;;;;;5047367;28;20052;-49
2024/01/30 06:15:54;;;;;;;25.50;20.50;;;6.30;92.80;;;;;;5033429;28;20032;-53
2024/01/30 06:18:20;;;;;;;23.80;19.63;;;6.30;92.70;;;;;;5049702;28;20035;-51
2024/01/30 06:20:46;;;;;;;25.38;19.95;;;6.40;92.60;;;;;;5048908;28;20044;-47
2024/01/30 06:23:14;;;;;;;27.27;20.33;;;6.40;92.60;;;;;;5035315;28;20025;-49
2024/01/30 06:25:40;;;;;;;27.63;20.08;;;6.40;92.50;;;;;;5052585;28;20464;-50
2024/01/30 06:28:06;;;;;;;23.85;19.42;;;6.40;92.60;;;;;;5034977;28;20025;-51
2024/01/30 06:30:31;;;;;;;23.50;19.48;;;6.50;92.50;;;;;;5046728;28;20329;-49
2024/01/30 06:32:57;;;;;;;25.67;19.75;;;6.50;92.40;;;;;;5032586;28;20029;-48
2024/01/30 06:35:22;;;;;;;24.05;19.15;;;6.50;92.30;;;;;;5048167;28;20404;-48
2024/01/30 06:37:48;;;;;;;21.42;18.85;;;6.50;92.30;;;;;;5051163;28;20442;-48
2024/01/30 06:40:14;;;;;;;27.88;21.00;;;6.50;92.20;;;;;;5033302;28;20032;-48
2024/01/30 06:42:39;;;;;;;24.15;19.90;;;6.50;92.10;;;;;;5050771;28;20025;-48
2024/01/30 06:45:06;;;;;;;22.02;18.08;;;6.50;92.10;;;;;;5044404;28;20104;-49
2024/01/30 06:47:33;;;;;;;22.45;18.20;;;6.60;92.10;;;;;;5044143;28;20044;-47
2024/01/30 06:49:59;;;;;;;22.08;18.52;;;6.60;92.10;;;;;;5047145;28;20043;-52
2024/01/30 06:52:27;;;;;;;24.45;18.98;;;6.60;91.90;;;;;;5049114;28;20033;-47
2024/01/30 06:54:55;;;;;;;22.90;18.63;;;6.60;91.80;;;;;;5051119;28;20071;-48
2024/01/30 06:57:21;;;;;;;25.17;20.02;;;6.60;91.80;;;;;;5050606;28;20027;-47
2024/01/30 06:59:46;;;;;;;21.92;18.90;;;6.60;91.80;;;;;;5049891;28;20095;-49
2024/01/30 07:02:14;;;;;;;22.58;19.60;;;6.60;91.80;;;;;;5051060;28;20040;-48
2024/01/30 07:04:43;;;;;;;21.23;17.65;;;6.60;91.70;;;;;;5023215;28;20025;-48
2024/01/30 07:07:12;;;;;;;26.13;19.45;;;6.60;91.70;;;;;;5042588;28;20362;-47
2024/01/30 07:09:38;;;;;;;22.17;19.85;;;6.60;91.70;;;;;;5044307;28;20021;-52
2024/01/30 07:12:09;;;;;;;22.27;18.20;;;6.60;91.60;;;;;;5018760;28;20034;-48
2024/01/30 07:14:34;;;;;;;21.05;17.67;;;6.50;91.80;;;;;;5035203;28;20059;-48
2024/01/30 07:17:00;;;;;;;22.60;18.38;;;6.50;91.90;;;;;;5044877;28;20029;-48
2024/01/30 07:19:26;;;;;;;22.90;19.05;;;6.50;91.90;;;;;;5051804;28;20029;-47
2024/01/30 07:21:51;;;;;;;23.80;19.35;;;6.60;92.00;;;;;;5051171;28;20127;-49
2024/01/30 07:24:17;;;;;;;25.88;20.58;;;6.60;92.10;;;;;;5029105;28;20025;-47
2024/01/30 07:26:42;;;;;;;22.92;18.85;;;6.70;92.10;;;;;;5038103;28;20037;-48
2024/01/30 07:29:08;;;;;;;23.58;19.70;;;6.60;92.10;;;;;;5040602;28;20037;-49
2024/01/30 07:31:34;;;;;;;23.92;19.33;;;6.70;92.10;;;;;;5039122;28;20029;-48
2024/01/30 07:33:59;;;;;;;24.02;19.63;;;6.70;92.00;;;;;;5050059;28;20041;-49
2024/01/30 07:36:26;;;;;;;21.52;17.67;;;6.70;92.00;;;;;;5049481;28;20045;-48
2024/01/30 07:38:54;;;;;;;22.35;18.55;;;6.70;92.00;;;;;;5047556;28;20044;-50
2024/01/30 07:41:19;;;;;;;24.92;19.58;;;6.80;92.10;;;;;;5042600;28;20048;-48
2024/01/30 07:43:45;;;;;;;21.27;19.00;;;6.80;92.00;;;;;;5049515;28;20498;-48
2024/01/30 07:46:11;;;;;;;24.45;19.23;;;6.80;91.90;;;;;;5049898;28;20421;-49
2024/01/30 07:48:36;;;;;;;22.17;17.92;;;6.80;91.90;;;;;;5047650;28;20040;-48
2024/01/30 07:51:03;;;;;;;22.52;17.98;;;6.80;91.80;;;;;;5044073;28;20071;-48
2024/01/30 07:53:29;;;;;;;22.92;18.92;;;6.80;91.80;;;;;;5049575;28;20049;-50
2024/01/30 07:55:55;;;;;;;23.15;19.45;;;6.80;91.90;;;;;;5032838;28;20075;-49
2024/01/30 07:58:23;;;;;;;21.10;17.98;;;6.90;92.00;;;;;;5047723;28;20036;-50
2024/01/30 08:00:49;;;;;;;21.80;18.00;;;6.90;91.90;;;;;;5044879;28;20033;-50
2024/01/30 08:03:16;;;;;;;21.95;18.58;;;6.90;91.70;;;;;;5048351;28;20021;-48
2024/01/30 08:05:44;;;;;;;21.35;18.55;;;7.00;91.70;;;;;;5048345;28;20036;-49
2024/01/30 08:08:10;;;;;;;20.95;17.27;;;7.00;91.80;;;;;;5049651;28;20056;-51
2024/01/30 08:10:36;;;;;;;21.13;18.45;;;7.10;91.80;;;;;;5046552;28;20049;-50
2024/01/30 08:13:04;;;;;;;19.90;17.25;;;7.10;91.70;;;;;;5050170;28;20029;-50
2024/01/30 08:15:30;;;;;;;24.83;19.15;;;7.20;91.60;;;;;;5052675;28;20493;-48
2024/01/30 08:17:58;;;;;;;24.58;17.88;;;7.20;91.50;;;;;;5053050;28;20029;-48
2024/01/30 08:20:25;;;;;;;25.38;18.17;;;7.20;91.50;;;;;;5052561;28;20079;-50
2024/01/30 08:22:52;;;;;;;23.08;18.20;;;7.30;91.50;;;;;;5049512;28;20029;-48
2024/01/30 08:25:17;;;;;;;21.92;17.85;;;7.30;91.30;;;;;;5052189;28;20029;-49
2024/01/30 08:27:45;;;;;;;22.13;16.75;;;7.30;91.30;;;;;;5054087;28;20411;-51
2024/01/30 08:30:14;;;;;;;22.42;17.15;;;7.40;91.20;;;;;;5032704;28;20343;-50
2024/01/30 08:32:39;;;;;;;20.27;17.65;;;7.40;91.20;;;;;;5052875;28;20017;-51
2024/01/30 08:35:06;;;;;;;22.13;18.17;;;7.40;91.10;;;;;;5054410;28;20103;-52
2024/01/30 08:37:32;;;;;;;20.20;16.20;;;7.50;91.00;;;;;;5053188;28;20469;-54
2024/01/30 08:39:57;;;;;;;19.30;16.20;;;7.50;90.90;;;;;;5053379;28;20048;-48
2024/01/30 08:42:25;;;;;;;19.35;17.15;;;7.50;90.80;;;;;;5054332;28;20107;-51
2024/01/30 08:44:54;;;;;;;19.42;16.45;;;7.50;90.90;;;;;;5047340;28;20030;-50
2024/01/30 08:47:19;;;;;;;21.60;16.05;;;7.60;90.90;;;;;;5048071;28;20033;-50
2024/01/30 08:49:45;;;;;;;18.55;15.23;;;7.60;90.90;;;;;;5026693;28;20438;-49
2024/01/30 08:52:11;;;;;;;19.98;17.63;;;7.60;90.80;;;;;;5044147;28;20046;-51
2024/01/30 08:54:36;;;;;;;21.27;16.40;;;7.70;90.70;;;;;;5027916;28;20025;-53
2024/01/30 08:57:05;;;;;;;19.10;15.70;;;7.70;90.60;;;;;;5051849;28;20032;-48
2024/01/30 08:59:30;;;;;;;22.98;16.42;;;7.70;90.70;;;;;;5044864;28;20029;-49
2024/01/30 09:01:59;;;;;;;17.73;15.73;;;7.80;90.50;;;;;;5046311;28;20048;-51
2024/01/30 09:04:27;;;;;;;23.10;15.90;;;7.80;90.50;;;;;;5048090;28;20021;-49
2024/01/30 09:06:55;;;;;;;19.83;17.02;;;7.90;90.50;;;;;;5032785;28;20346;-50
2024/01/30 09:09:23;;;;;;;18.67;15.52;;;7.90;90.40;;;;;;5041627;28;20022;-51
2024/01/30 09:11:48;;;;;;;21.98;16.10;;;7.90;90.30;;;;;;5048709;28;20031;-51
2024/01/30 09:14:14;;;;;;;19.52;14.98;;;8.00;90.20;;;;;;5050015;28;20025;-48
2024/01/30 09:16:39;;;;;;;18.02;14.68;;;8.00;90.10;;;;;;5045412;28;20060;-54
2024/01/30 09:19:05;;;;;;;19.90;15.52;;;8.10;90.20;;;;;;5040964;28;20117;-53
2024/01/30 09:21:31;;;;;;;20.13;16.60;;;8.10;90.20;;;;;;5046611;28;20462;-53
2024/01/30 09:24:05;;;;;;;24.27;15.93;;;8.10;90.30;;;;;;5035229;28;20398;-51
2024/01/30 09:26:31;;;;;;;17.75;15.63;;;8.10;90.20;;;;;;5052689;28;20509;-52
2024/01/30 09:28:56;;;;;;;16.33;14.38;;;8.20;90.10;;;;;;5045998;28;20112;-49
2024/01/30 09:31:22;;;;;;;18.73;15.73;;;8.20;90.00;;;;;;5026450;28;20401;-50
2024/01/30 09:33:49;;;;;;;20.90;16.85;;;8.30;89.80;;;;;;5040460;28;20067;-50
2024/01/30 09:36:19;;;;;;;19.38;15.02;;;8.30;89.70;;;;;;5041942;28;20017;-51
2024/01/30 09:38:45;;;;;;;18.98;15.07;;;8.40;89.50;;;;;;5048899;28;20032;-52
2024/01/30 09:41:15;;;;;;;19.63;15.05;;;8.40;89.30;;;;;;5046887;28;20033;-51
2024/01/30 09:43:48;;;;;;;17.98;14.52;;;8.40;89.40;;;;;;5042981;28;20041;-49
2024/01/30 09:46:16;;;;;;;17.77;14.05;;;8.50;89.40;;;;;;5052587;28;20028;-50
2024/01/30 09:48:42;;;;;;;15.07;13.43;;;8.50;89.20;;;;;;5045671;28;20082;-52
2024/01/30 09:51:12;;;;;;;19.50;15.65;;;8.50;89.20;;;;;;5042084;28;20025;-49
2024/01/30 09:53:39;;;;;;;15.20;13.52;;;8.50;89.10;;;;;;5037946;28;20036;-54
2024/01/30 09:56:05;;;;;;;20.30;15.57;;;8.60;89.10;;;;;;5042983;28;20031;-51
2024/01/30 09:58:31;;;;;;;19.35;14.43;;;8.60;88.90;;;;;;5049186;28;20437;-52
2024/01/30 10:00:59;;;;;;;19.48;14.38;;;8.70;89.10;;;;;;5040634;28;20079;-52
2024/01/30 10:03:25;;;;;;;17.52;14.85;;;8.70;89.10;;;;;;5024004;28;20116;-48
2024/01/30 10:05:54;;;;;;;17.80;14.25;;;8.70;88.90;;;;;;5032823;28;20025;-51
2024/01/30 10:08:20;;;;;;;21.90;16.52;;;8.80;89.00;;;;;;5048701;28;20029;-49
2024/01/30 10:10:52;;;;;;;17.00;14.77;;;8.80;88.90;;;;;;5041164;28;20136;-48
2024/01/30 10:13:18;;;;;;;18.50;15.35;;;8.80;88.80;;;;;;5045611;28;20032;-50
2024/01/30 10:15:47;;;;;;;17.08;14.18;;;8.90;89.00;;;;;;5036356;28;20025;-48
2024/01/30 10:18:13;;;;;;;20.17;14.60;;;8.90;88.90;;;;;;5040195;28;20048;-50
2024/01/30 10:20:38;;;;;;;17.13;14.18;;;9.00;88.90;;;;;;5049600;28;20045;-49
2024/01/30 10:23:04;;;;;;;24.52;15.68;;;9.00;88.80;;;;;;5042366;28;20125;-48
2024/01/30 10:25:33;;;;;;;17.42;14.20;;;9.00;88.70;;;;;;5052090;28;20445;-53
2024/01/30 10:27:59;;;;;;;18.13;14.02;;;9.00;88.70;;;;;;5040393;28;20108;-48
2024/01/30 10:30:27;;;;;;;18.95;15.32;;;9.10;88.90;;;;;;5036623;28;20454;-49
2024/01/30 10:32:57;;;;;;;18.00;13.15;;;9.20;88.90;;;;;;5050701;28;20090;-49
2024/01/30 10:35:22;;;;;;;15.60;13.67;;;9.20;88.90;;;;;;5036788;28;20038;-50
2024/01/30 10:37:51;;;;;;;17.02;13.27;;;9.20;88.90;;;;;;5047927;28;20279;-49
2024/01/30 10:40:20;;;;;;;18.00;13.80;;;9.30;89.00;;;;;;5046331;28;20034;-48
2024/01/30 10:42:46;;;;;;;15.27;13.65;;;9.30;88.90;;;;;;5033552;28;20119;-48
2024/01/30 10:45:13;;;;;;;17.17;14.48;;;9.30;88.90;;;;;;5043432;28;20025;-48
2024/01/30 10:47:49;;;;;;;15.85;12.60;;;9.30;88.80;;;;;;5047124;28;20063;-52
2024/01/30 10:50:15;;;;;;;16.48;12.48;;;9.30;88.90;;;;;;5038722;28;20036;-48
2024/01/30 10:52:42;;;;;;;14.98;12.68;;;9.40;89.10;;;;;;5051623;28;20079;-49
2024/01/30 10:55:08;;;;;;;16.60;13.43;;;9.40;89.20;;;;;;5048882;28;20033;-48
2024/01/30 10:57:37;;;;;;;16.42;12.32;;;9.40;89.10;;;;;;5038947;28;20025;-49
2024/01/30 11:00:10;;;;;;;21.20;13.80;;;9.50;89.20;;;;;;5046894;28;20680;-51
2024/01/30 11:02:39;;;;;;;15.63;11.93;;;9.60;89.10;;;;;;5049763;28;20037;-48
2024/01/30 11:05:08;;;;;;;18.40;13.23;;;9.70;89.10;;;;;;5045997;28;20457;-49
2024/01/30 11:07:36;;;;;;;13.48;11.88;;;9.80;88.80;;;;;;5049331;28;20032;-53
2024/01/30 11:10:03;;;;;;;18.65;12.85;;;9.80;88.70;;;;;;5036764;28;20033;-50
2024/01/30 11:12:33;;;;;;;14.05;12.00;;;9.90;88.60;;;;;;5043442;28;20521;-49
2024/01/30 11:15:08;;;;;;;16.13;13.05;;;9.90;88.20;;;;;;5045497;28;20033;-49
2024/01/30 11:17:52;;;;;;;14.07;11.80;;;9.90;88.30;;;;;;5043369;28;20113;-52
2024/01/30 11:20:33;;;;;;;14.25;11.77;;;9.90;88.30;;;;;;5051135;28;20496;-48
2024/01/30 11:23:01;;;;;;;16.40;12.75;;;10.00;88.00;;;;;;5031669;28;20470;-48
2024/01/30 11:25:27;;;;;;;16.98;12.57;;;10.00;88.00;;;;;;5040569;28;20029;-50
2024/01/30 11:27:55;;;;;;;15.88;11.90;;;10.10;87.90;;;;;;5032595;28;20109;-49
2024/01/30 11:30:26;;;;;;;19.25;12.95;;;10.20;87.90;;;;;;5044286;28;20029;-48
2024/01/30 11:32:58;;;;;;;16.30;12.00;;;10.20;87.90;;;;;;5050122;28;20036;-48
2024/01/30 11:35:27;;;;;;;17.20;12.90;;;10.20;87.90;;;;;;5041148;28;20324;-48
2024/01/30 11:37:57;;;;;;;15.68;12.30;;;10.20;87.80;;;;;;5036269;28;20029;-52
2024/01/30 11:40:27;;;;;;;16.00;12.80;;;10.20;87.80;;;;;;5045383;28;20120;-53
2024/01/30 11:42:54;;;;;;;19.98;12.68;;;10.20;87.90;;;;;;5030175;28;20044;-48
2024/01/30 11:45:20;;;;;;;14.00;11.70;;;10.20;88.00;;;;;;5049328;28;20021;-51
2024/01/30 11:47:45;;;;;;;14.50;12.13;;;10.20;87.90;;;;;;5050822;28;20040;-48
2024/01/30 11:50:14;;;;;;;17.90;13.02;;;10.20;87.90;;;;;;5048221;28;20025;-48
2024/01/30 11:52:40;;;;;;;17.02;12.25;;;10.20;88.00;;;;;;5047725;28;20431;-49
2024/01/30 11:55:09;;;;;;;15.27;11.68;;;10.20;88.20;;;;;;5053117;28;20056;-49
2024/01/30 11:57:37;;;;;;;14.32;11.90;;;10.20;88.10;;;;;;5054867;28;20025;-49
2024/01/30 12:00:10;;;;;;;15.40;11.80;;;10.20;88.20;;;;;;5048721;28;20112;-52
2024/01/30 12:02:42;;;;;;;17.98;11.07;;;10.30;88.10;;;;;;5027990;28;20575;-51
2024/01/30 12:05:11;;;;;;;16.83;11.85;;;10.20;88.20;;;;;;5051130;28;20091;-50
2024/01/30 12:07:37;;;;;;;14.20;11.15;;;10.20;88.20;;;;;;5048883;28;20021;-53
2024/01/30 12:10:05;;;;;;;15.65;12.52;;;10.20;88.20;;;;;;5054772;28;20464;-50
2024/01/30 12:12:31;;;;;;;18.38;13.35;;;10.30;88.30;;;;;;5052654;28;20033;-51
2024/01/30 12:14:57;;;;;;;16.77;12.88;;;10.30;88.20;;;;;;5031852;28;20140;-52
2024/01/30 12:17:34;;;;;;;18.15;12.27;;;10.40;88.40;;;;;;5048947;28;20426;-50
2024/01/30 12:20:14;;;;;;;17.55;13.40;;;10.40;88.20;;;;;;5054854;28;20132;-49
2024/01/30 12:22:44;;;;;;;15.10;12.45;;;10.40;88.20;;;;;;5036959;28;20349;-50
2024/01/30 12:25:12;;;;;;;17.00;12.95;;;10.30;88.30;;;;;;5046950;28;20037;-50
2024/01/30 12:27:39;;;;;;;20.25;12.70;;;10.30;88.30;;;;;;5043791;28;20021;-48
2024/01/30 12:30:14;;;;;;;17.63;12.43;;;10.40;88.30;;;;;;5050627;28;20083;-49
2024/01/30 12:32:44;;;;;;;16.02;13.85;;;10.40;88.50;;;;;;5043344;28;20039;-49
2024/01/30 12:35:10;;;;;;;;;;;10.40;88.40;;;;;;5055299;28;20393;-48